الصفحة الرئيسية
METAR-TAF:

METAR-TAF

مطار :

برازيليا, برازيليا, البرازيل

دائرة عرض: 15-52S, خط طول: 047-56W, ارتفاع: 1061 متر

مراقبة الطقس الحالي

تاريخ ووقت الإصدار 48 دقيقة قبل الساعة 12:00UTC
ريح 10 عقدة من الشرق/الشمال الشرقي
درجة الحرارة 25°درجة مئوية
الرطوبة 47%
ضغط 1020 hPa
الرؤية 10 كم أو أكثر
الغيوم لا تقل 1500 م ولا وجود لمزنة ركامية السحاب الأسود

METAR: SBBR 201200Z 06010KT CAVOK 25/13 Q1020

زمن: 10:48 (12:48 UTC)

توقعات

تاريخ ووقت الإصدار 2ساعات و 48 دقيقة قبل الساعة 10:00UTC
التوقعات صالحة من20 الساعة 12 UTC إلى 21 الساعة 12 UTC
ريح 7 عقدة من الشرق
الرؤية: 8000 متر
غيوم مفككة على ارتفاع 4000 قدم
أصبح
من 20 الساعة 19 UTC إلى 20 الساعة 21 UTC
الرؤية: 8000 متر
أصبح
من 21 الساعة 00 UTC إلى 21 الساعة 02 UTC
ريح 5 عقدة من الجنوب الغربي
الرؤية 10 كم أو أكثر
الغيوم لا تقل 1500 م ولا وجود لمزنة ركامية السحاب الأسود
أصبح
من 21 الساعة 09 UTC إلى 21 الساعة 11 UTC
ريح 5 عقدة من الشرق/الشمال الشرقي

TAF: SBBR 201000Z 2012/2112 06007KT 8000 NSC TX30/2018Z TN17/2108Z BEC MG 2015/2017 10007KT BKN040 BECMG 2019/2021 8000 NSC BECMG 2100/2102 22005KT CAVOK BECMG 2109/2111 07005KT RMK PDB

أرصاد الطقس والتوقعات من أكثر من 4000 مطار (تقارير الطقس للمطار METAR والتنبؤ بالطقس بالمطارTAF).

المحطات المتاحة هي النقط الصفراء والحمراء على الخريطة.

حرك المؤشر فوق النقطة لمعرفة اسم المحطة.

ثم انقر لمعرفة أرصاد وتوقعات الطقس.

لتغيير الخارطة: اضغط على الأزرار الخضراء مع رمز الصليب الأسود للتكبير. على الزر الأخضر مع شرطة للتصغير، أو على الأسهم الخضراء للخرائط المجاورة.


METAR-TAF: